Thunder radar more information blitzortung!


Löydät sääaseman tiedot myös:

European Weather Network

Finland Weather Exchange

Weather Underground

AWEKAS



Weather Underground säähistoriasivu

Päivittäin yhteenveto Huhtikuu 20, 2017 Yksiköt:  Englantilaiset    Metriset   Molemmat
« Edellinen Päivä
Seuraava Päivä »
Päivittäin Viikoittain Kuukausittain Vuosittain Mukautettu
  Korkea: Matala: Keskiarvo:
Lämpötila: TemperatureC °F -1.8 °F 1.7 °F
Kastepiste: DewpointC °F -5.9 °F -1.2 °F
Kosteus: Humidity % 57 % 81 %
Tuulen nopeus: WindSpeedKMH mph 1.6 mph 8.2 mph
Tuulenpuuska: WindSpeedGustKMH mph - -
Tuuli:- - SSW
Ilmanpaine: PressurehPa in 1003.9 in -
Sade: 2.5 in    
Historical Graphs
 
 
Taulukkotiedot Huhtikuu 20, 2017
Aika Lämpötila Kastepiste Ilmanpaine Tuuli Tuulen nopeus Tuulenpuuska Kosteus Sademäärä (tunneittain)
TemperatureC °F DewpointC °F PressurehPa in Calm     Humidity % HourlyPrecipMM in
00:00 -0.9 °F -5.9 °F 1026.6 in SW 3.2 mph 9.7 mph 69 % 0.0 in
00:15 -0.9 °F -5.9 °F 1026.6 in SSW 1.6 mph 9.7 mph 69 % 0.0 in
00:30 -1.0 °F -5.8 °F 1026.3 in SSW 3.2 mph 9.7 mph 70 % 0.0 in
00:45 -1.1 °F -5.3 °F 1026.3 in SSW 3.2 mph 9.7 mph 73 % 0.0 in
01:00 -1.1 °F -4.8 °F 1026.3 in SSW 3.2 mph 11.3 mph 76 % 0.0 in
01:15 -1.1 °F -4.2 °F 1026.0 in SW 4.8 mph 11.3 mph 79 % 0.0 in
01:30 -1.1 °F -4.0 °F 1026.0 in SSW 3.2 mph 9.7 mph 81 % 0.0 in
01:45 -1.1 °F -3.6 °F 1025.6 in SSW 3.2 mph 11.3 mph 83 % 0.0 in
02:00 -1.2 °F -3.6 °F 1025.6 in South 3.2 mph 8.0 mph 84 % 0.0 in
02:15 -1.2 °F -3.4 °F 1025.6 in SSW 4.8 mph 11.3 mph 85 % 0.0 in
02:30 -1.2 °F -3.3 °F 1025.3 in SSW 4.8 mph 14.5 mph 86 % 0.0 in
02:45 -1.2 °F -3.2 °F 1024.9 in SW 3.2 mph 9.7 mph 86 % 0.0 in
03:00 -1.1 °F -3.0 °F 1024.6 in SSW 4.8 mph 14.5 mph 87 % 0.0 in
03:15 -1.2 °F -3.1 °F 1024.6 in SSW 3.2 mph 12.9 mph 87 % 0.0 in
03:30 -1.2 °F -3.1 °F 1024.3 in SSW 4.8 mph 11.3 mph 87 % 0.0 in
03:45 -1.2 °F -3.1 °F 1024.3 in SSW 6.4 mph 14.5 mph 87 % 0.0 in
04:00 -1.2 °F -3.2 °F 1023.9 in SSW 4.8 mph 14.5 mph 86 % 0.0 in
04:15 -1.2 °F -3.3 °F 1023.6 in SSW 4.8 mph 11.3 mph 86 % 0.0 in
04:30 -1.3 °F -3.3 °F 1023.6 in SSW 4.8 mph 8.0 mph 86 % 0.0 in
04:45 -1.3 °F -3.3 °F 1023.2 in SSW 4.8 mph 11.3 mph 86 % 0.0 in
05:00 -1.4 °F -3.6 °F 1023.2 in SSW 3.2 mph 9.7 mph 85 % 0.0 in
05:15 -1.6 °F -3.8 °F 1022.6 in SSW 1.6 mph 8.0 mph 85 % 0.0 in
05:30 -1.8 °F -3.8 °F 1022.6 in South 3.2 mph 8.0 mph 86 % 0.0 in
05:45 -1.8 °F -4.0 °F 1022.2 in SSW 3.2 mph 9.7 mph 85 % 0.0 in
06:00 -1.8 °F -4.1 °F 1022.2 in SSW 3.2 mph 11.3 mph 84 % 0.0 in
06:15 -1.6 °F -4.0 °F 1021.9 in SSW 3.2 mph 12.9 mph 84 % 0.0 in
06:30 -1.4 °F -3.8 °F 1021.6 in South 3.2 mph 11.3 mph 84 % 0.0 in
06:45 -1.2 °F -3.6 °F 1021.6 in SSW 4.8 mph 11.3 mph 84 % 0.0 in
07:00 -0.8 °F -3.1 °F 1021.2 in SSW 6.4 mph 16.1 mph 84 % 0.0 in
07:15 -0.3 °F -2.8 °F 1020.9 in SSW 8.0 mph 16.1 mph 83 % 0.0 in
07:30 0.0 °F -2.5 °F 1020.5 in SSW 8.0 mph 17.7 mph 83 % 0.0 in
07:45 0.2 °F -2.3 °F 1020.5 in SSW 8.0 mph 17.7 mph 83 % 0.0 in
08:00 0.4 °F -2.3 °F 1020.2 in SSW 9.7 mph 20.9 mph 82 % 0.0 in
08:15 0.6 °F -2.2 °F 1019.9 in SSW 8.0 mph 17.7 mph 82 % 0.0 in
08:30 0.8 °F -1.9 °F 1019.5 in SSW 6.4 mph 16.1 mph 82 % 0.0 in
08:45 1.2 °F -1.7 °F 1019.2 in SSW 9.7 mph 17.7 mph 81 % 0.0 in
09:00 1.7 °F -1.4 °F 1019.2 in SSW 8.0 mph 19.3 mph 80 % 0.0 in
09:15 2.0 °F -1.4 °F 1018.8 in SSW 8.0 mph 20.9 mph 78 % 0.0 in
09:30 2.3 °F -1.3 °F 1018.5 in SSW 11.3 mph 24.1 mph 77 % 0.0 in
09:45 2.9 °F -1.1 °F 1018.2 in SSW 8.0 mph 20.9 mph 75 % 0.0 in
10:00 3.5 °F -0.9 °F 1017.8 in South 6.4 mph 20.9 mph 73 % 0.0 in
10:15 3.9 °F -0.8 °F 1017.5 in SSW 8.0 mph 19.3 mph 71 % 0.0 in
10:30 4.3 °F -0.9 °F 1017.2 in South 9.7 mph 24.1 mph 69 % 0.0 in
10:45 4.8 °F -0.6 °F 1016.8 in SSW 9.7 mph 19.3 mph 68 % 0.0 in
11:00 5.2 °F -0.6 °F 1016.5 in SSW 9.7 mph 20.9 mph 66 % 0.0 in
11:15 5.7 °F -0.8 °F 1016.1 in SSW 12.9 mph 27.4 mph 63 % 0.0 in
11:30 6.1 °F -0.7 °F 1016.1 in SSW 14.5 mph 37.0 mph 62 % 0.0 in
11:45 6.3 °F -0.7 °F 1015.8 in SSW 16.1 mph 37.0 mph 61 % 0.0 in
12:00 6.2 °F -0.8 °F 1015.5 in SSW 14.5 mph 37.0 mph 61 % 0.0 in
12:15 6.4 °F -0.6 °F 1015.1 in SSW 16.1 mph 35.4 mph 61 % 0.0 in
12:30 6.7 °F -0.8 °F 1015.1 in SSW 14.5 mph 29.0 mph 59 % 0.0 in
12:45 6.5 °F -0.7 °F 1014.8 in SSW 16.1 mph 38.6 mph 60 % 0.0 in
13:00 6.3 °F -0.9 °F 1014.4 in SSW 16.1 mph 40.2 mph 60 % 0.0 in
13:15 6.2 °F -0.8 °F 1014.1 in SSW 16.1 mph 40.2 mph 61 % 0.0 in
13:30 6.2 °F -1.5 °F 1013.8 in SSW 17.7 mph 38.6 mph 58 % 0.0 in
13:45 6.2 °F -1.3 °F 1013.4 in SSW 12.9 mph 35.4 mph 59 % 0.0 in
14:00 6.1 °F -1.6 °F 1013.4 in SSW 16.1 mph 40.2 mph 58 % 0.0 in
14:15 6.0 °F -1.6 °F 1013.1 in SSW 14.5 mph 29.0 mph 58 % 0.0 in
14:30 6.0 °F -1.6 °F 1013.1 in SSW 14.5 mph 30.6 mph 58 % 0.0 in
14:45 6.0 °F -1.9 °F 1013.1 in SSW 14.5 mph 29.0 mph 57 % 0.0 in
15:00 5.7 °F -1.1 °F 1012.8 in SSW 16.1 mph 38.6 mph 62 % 0.0 in
15:15 4.4 °F 0.3 °F 1012.8 in SSW 17.7 mph 38.6 mph 75 % 0.0 in
15:30 3.7 °F 0.4 °F 1012.8 in SSW 12.9 mph 35.4 mph 79 % 0.0 in
15:45 3.0 °F 0.7 °F 1012.4 in SSW 14.5 mph 35.4 mph 85 % 0.3 in
16:00 2.6 °F 1.0 °F 1012.1 in SW 11.3 mph 25.7 mph 89 % 0.3 in
16:15 2.2 °F 0.9 °F 1011.7 in SSW 9.7 mph 22.5 mph 91 % 0.5 in
16:30 1.9 °F 0.8 °F 1011.1 in SSW 9.7 mph 22.5 mph 92 % 0.8 in
16:45 1.6 °F 0.5 °F 1010.7 in SSW 11.3 mph 24.1 mph 93 % 0.8 in
17:00 1.4 °F 0.6 °F 1010.0 in SSW 9.7 mph 24.1 mph 94 % 1.0 in
17:15 1.3 °F 0.5 °F 1009.7 in SSW 9.7 mph 24.1 mph 94 % 0.8 in
17:30 1.3 °F 0.5 °F 1009.4 in SSW 11.3 mph 25.7 mph 94 % 0.8 in
17:45 1.3 °F 0.6 °F 1009.0 in SSW 11.3 mph 20.9 mph 95 % 0.8 in
18:00 1.3 °F 0.6 °F 1008.7 in SSW 9.7 mph 19.3 mph 95 % 0.5 in
18:15 1.4 °F 0.7 °F 1008.4 in SSW 11.3 mph 25.7 mph 95 % 0.5 in
18:30 1.6 °F 0.8 °F 1008.0 in SSW 11.3 mph 20.9 mph 95 % 0.5 in
18:45 1.6 °F 0.9 °F 1008.0 in SSW 11.3 mph 22.5 mph 95 % 0.5 in
19:00 1.6 °F 0.9 °F 1007.7 in SSW 9.7 mph 24.1 mph 95 % 0.5 in
19:15 1.7 °F 1.0 °F 1007.3 in SSW 9.7 mph 20.9 mph 95 % 0.5 in
19:30 1.8 °F 1.1 °F 1007.3 in SSW 11.3 mph 24.1 mph 95 % 0.5 in
19:45 1.8 °F 1.1 °F 1007.0 in SSW 11.3 mph 29.0 mph 95 % 0.5 in
20:00 1.8 °F 1.1 °F 1007.0 in SSW 9.7 mph 24.1 mph 95 % 0.3 in
20:15 1.9 °F 1.2 °F 1006.7 in SSW 8.0 mph 17.7 mph 95 % 0.0 in
20:30 1.9 °F 1.2 °F 1006.3 in SSW 8.0 mph 16.1 mph 95 % 0.0 in
20:45 2.1 °F 1.4 °F 1006.3 in SSW 6.4 mph 19.3 mph 95 % 0.0 in
21:00 2.2 °F 1.6 °F 1006.3 in SSW 6.4 mph 16.1 mph 96 % 0.0 in
21:15 2.3 °F 1.7 °F 1006.0 in SSW 6.4 mph 16.1 mph 96 % 0.0 in
21:30 2.3 °F 1.7 °F 1005.6 in SSW 1.6 mph 9.7 mph 96 % 0.0 in
21:45 2.3 °F 1.7 °F 1005.3 in SSW 4.8 mph 9.7 mph 96 % 0.0 in
22:00 2.4 °F 1.9 °F 1005.0 in SSW 4.8 mph 11.3 mph 96 % 0.0 in
22:15 2.7 °F 2.1 °F 1005.0 in SSW 3.2 mph 11.3 mph 96 % 0.0 in
22:30 2.7 °F 2.1 °F 1004.6 in SSW 3.2 mph 9.7 mph 96 % 0.0 in
22:45 2.7 °F 2.1 °F 1004.6 in SSW 4.8 mph 12.9 mph 96 % 0.0 in
23:00 2.6 °F 1.8 °F 1004.3 in SSW 6.4 mph 14.5 mph 95 % 0.0 in
23:15 2.3 °F 1.6 °F 1004.3 in SSW 4.8 mph 9.7 mph 95 % 0.0 in
23:30 2.1 °F 1.3 °F 1003.9 in SSW 4.8 mph 11.3 mph 95 % 0.0 in
23:45 1.8 °F 1.1 °F 1003.9 in SW 3.2 mph 9.7 mph 95 % 0.0 in
Esan sääasema
Terveisin Weather Underground - 2.75 mb

Alkuperäinen skripti  Jim McMurry - jmcmurry@mwt.net Sovitettu myös templatelle  Wim van der Kuil - Leuven-Template.eu

Laitteet joita käytämme:

Sääasema
Davis VP2

Sääasemaohjelma
Cumulus

Sääaseman tietokone
Asus EeePC

Palveluntarjoaja
Suncomet

Davis VP2

Cumulus

Asus EeePC

Suncomet